Time;durP1;ratioP1;P1;durP2;ratioP2;P2;SDS_P1;SDS_P2;PMS_P1;PMS_P2;Temp;Humidity;BMP_temperature;BMP_pressure;BME280_temperature;BME280_humidity;BME280_pressure;Samples;Min_cycle;Max_cycle;Signal;HPM_P1;HPM_P2
2022/01/22 00:00:45;;;;;;;13.57;8.45;;;2.90;99.90;;;;;;4917514;29;20040;-77
2022/01/22 00:03:11;;;;;;;17.02;7.95;;;2.90;99.90;;;;;;4917561;29;20036;-78
2022/01/22 00:05:37;;;;;;;22.80;7.90;;;2.80;99.90;;;;;;4917997;29;20028;-77
2022/01/22 00:08:03;;;;;;;13.40;8.20;;;2.90;99.90;;;;;;4917977;29;20034;-77
2022/01/22 00:10:29;;;;;;;15.15;8.57;;;2.90;99.90;;;;;;4917682;29;20388;-78
2022/01/22 00:13:08;;;;;;;15.93;8.27;;;3.00;99.90;;;;;;4917553;29;20038;-77
2022/01/22 00:15:35;;;;;;;17.20;7.68;;;3.10;99.90;;;;;;4917085;29;20094;-77
2022/01/22 00:18:01;;;;;;;14.80;8.80;;;3.10;99.90;;;;;;4917472;29;20024;-78
2022/01/22 00:20:31;;;;;;;17.05;8.80;;;3.00;99.90;;;;;;4900135;29;20036;-77
2022/01/22 00:22:56;;;;;;;16.65;8.65;;;2.90;99.90;;;;;;4917524;29;20385;-78
2022/01/22 00:25:22;;;;;;;13.20;7.45;;;3.00;99.90;;;;;;4917299;29;20028;-76
2022/01/22 00:27:50;;;;;;;22.02;7.90;;;3.00;99.90;;;;;;4917278;29;20485;-78
2022/01/22 00:30:20;;;;;;;15.10;8.20;;;3.00;99.90;;;;;;4916936;29;20099;-78
2022/01/22 00:32:46;;;;;;;16.33;8.35;;;3.00;99.90;;;;;;4917177;29;20031;-77
2022/01/22 00:35:13;;;;;;;13.75;8.02;;;3.00;99.90;;;;;;4917037;29;20415;-78
2022/01/22 00:37:41;;;;;;;17.25;8.20;;;3.00;99.90;;;;;;4917422;29;20103;-77
2022/01/22 00:40:10;;;;;;;14.93;8.00;;;3.00;99.90;;;;;;4916955;29;20050;-78
2022/01/22 00:42:36;;;;;;;16.65;7.63;;;3.10;99.90;;;;;;4917705;29;20016;-77
2022/01/22 00:45:03;;;;;;;16.65;7.85;;;3.10;99.90;;;;;;4916788;29;20028;-77
2022/01/22 00:47:29;;;;;;;18.10;8.93;;;3.10;99.90;;;;;;4917083;29;20052;-78
2022/01/22 00:49:54;;;;;;;14.02;8.27;;;3.10;99.90;;;;;;4916974;29;20059;-77
2022/01/22 00:52:20;;;;;;;19.17;8.23;;;3.10;99.90;;;;;;4917100;29;20389;-77
2022/01/22 00:54:46;;;;;;;14.63;7.85;;;3.10;99.90;;;;;;4917072;29;20040;-77
2022/01/22 00:57:11;;;;;;;13.18;7.68;;;3.10;99.90;;;;;;4916248;29;20096;-78
2022/01/22 00:59:37;;;;;;;15.55;8.35;;;3.10;99.90;;;;;;4916535;29;20474;-79
2022/01/22 01:02:03;;;;;;;13.05;7.40;;;3.10;99.90;;;;;;4916183;29;20035;-77
2022/01/22 01:04:33;;;;;;;13.23;7.30;;;3.20;99.90;;;;;;4916107;29;20039;-79
2022/01/22 01:06:59;;;;;;;11.43;6.57;;;3.30;99.90;;;;;;4899811;29;20150;-77
2022/01/22 01:09:24;;;;;;;21.60;7.50;;;3.30;99.90;;;;;;4916587;29;20045;-78
2022/01/22 01:11:55;;;;;;;14.20;6.95;;;3.40;99.90;;;;;;4916541;29;20025;-77
2022/01/22 01:14:29;;;;;;;12.73;7.40;;;3.50;99.90;;;;;;4915296;29;20043;-78
2022/01/22 01:36:02;;;;;;;21.52;7.35;;;3.40;99.90;;;;;;4907477;29;20043;-77
2022/01/22 01:38:28;;;;;;;17.15;7.78;;;3.40;99.90;;;;;;4916355;29;20039;-78
2022/01/22 01:41:06;;;;;;;12.95;7.15;;;3.50;99.90;;;;;;4916172;29;20048;-77
2022/01/22 01:43:36;;;;;;;17.73;7.07;;;3.50;99.90;;;;;;4896757;29;20033;-78
2022/01/22 01:46:01;;;;;;;16.33;8.93;;;3.60;99.90;;;;;;4897430;29;20056;-78
2022/01/22 01:48:32;;;;;;;14.68;8.27;;;3.60;99.90;;;;;;4897406;29;20490;-78
2022/01/22 01:50:59;;;;;;;12.82;7.47;;;3.60;99.90;;;;;;4897118;29;20020;-78
2022/01/22 01:56:04;;;;;;;19.50;8.20;;;3.70;99.90;;;;;;4897092;29;20029;-77
2022/01/22 01:58:31;;;;;;;13.95;8.30;;;3.70;99.90;;;;;;4897377;29;20104;-77
2022/01/22 02:01:00;;;;;;;20.52;8.57;;;3.80;99.90;;;;;;4903641;29;20024;-78
2022/01/22 02:03:26;;;;;;;27.75;13.13;;;3.80;99.90;;;;;;4916094;29;20034;-78
2022/01/22 02:05:52;;;;;;;17.83;9.55;;;3.80;99.90;;;;;;4916061;29;20028;-78
2022/01/22 02:08:19;;;;;;;17.67;7.80;;;3.90;99.90;;;;;;4915622;29;20108;-78
2022/01/22 02:10:54;;;;;;;17.98;8.75;;;3.90;99.90;;;;;;4915328;29;20382;-77
2022/01/22 02:24:54;;;;;;;15.10;7.25;;;3.60;99.90;;;;;;4919156;29;20031;-77
2022/01/22 02:27:21;;;;;;;15.18;7.75;;;3.60;99.90;;;;;;4919759;29;20498;-77
2022/01/22 02:29:46;;;;;;;11.48;6.53;;;3.60;99.90;;;;;;4919761;29;20032;-78
2022/01/22 02:34:59;;;;;;;16.55;7.47;;;3.50;99.90;;;;;;4919512;29;20650;-77
2022/01/22 02:37:32;;;;;;;11.43;7.00;;;3.50;99.90;;;;;;4919379;29;20433;-77
2022/01/22 02:40:09;;;;;;;12.93;7.63;;;3.50;99.90;;;;;;4901934;29;20054;-77
2022/01/22 02:42:35;;;;;;;13.95;7.35;;;3.60;99.90;;;;;;4919101;29;20028;-77
2022/01/22 02:45:08;;;;;;;15.75;7.38;;;3.50;99.90;;;;;;4919064;29;20032;-76
2022/01/22 02:47:34;;;;;;;11.45;6.70;;;3.50;99.90;;;;;;4919093;29;20024;-77
2022/01/22 02:49:59;;;;;;;12.35;6.72;;;3.50;99.90;;;;;;4919086;29;20128;-78
2022/01/22 02:52:25;;;;;;;17.02;7.90;;;3.50;99.90;;;;;;4918926;29;20042;-77
2022/01/22 02:54:51;;;;;;;13.20;7.32;;;3.60;99.90;;;;;;4918929;29;20404;-78
2022/01/22 02:57:17;;;;;;;12.23;7.07;;;3.60;99.90;;;;;;4918741;29;20112;-78
2022/01/22 02:59:43;;;;;;;11.05;6.88;;;3.60;99.90;;;;;;4918751;29;20462;-77
2022/01/22 03:02:13;;;;;;;13.27;6.13;;;3.70;99.90;;;;;;4918696;29;20038;-78
2022/01/22 03:04:39;;;;;;;9.50;6.03;;;3.70;99.90;;;;;;4918189;29;20485;-76
2022/01/22 03:07:06;;;;;;;10.00;6.60;;;3.80;99.90;;;;;;4918805;29;20051;-78
2022/01/22 03:09:39;;;;;;;11.38;6.50;;;3.80;99.90;;;;;;4918784;29;20025;-77
2022/01/22 03:20:22;;;;;;;9.43;5.28;;;4.10;99.90;;;;;;4918667;29;20039;-77
2022/01/22 03:28:02;;;;;;;8.07;5.70;;;4.30;99.90;;;;;;4918889;29;20039;-78
2022/01/22 03:30:28;;;;;;;10.45;5.75;;;4.40;99.90;;;;;;4918234;29;20078;-78
2022/01/22 03:32:56;;;;;;;16.55;6.70;;;4.40;99.90;;;;;;4901353;29;20484;-78
2022/01/22 03:37:52;;;;;;;9.48;6.03;;;4.40;99.90;;;;;;4917853;29;20035;-79
2022/01/22 03:40:21;;;;;;;11.50;6.35;;;4.30;99.90;;;;;;4917790;29;20047;-77
2022/01/22 03:42:47;;;;;;;11.40;6.20;;;4.20;99.90;;;;;;4918047;29;20466;-79
2022/01/22 03:45:14;;;;;;;12.55;5.82;;;4.10;99.90;;;;;;4918285;29;20052;-79
2022/01/22 03:47:40;;;;;;;11.38;6.05;;;4.00;99.90;;;;;;4918197;29;20028;-76
2022/01/22 03:50:07;;;;;;;16.00;5.85;;;4.10;99.90;;;;;;4918200;29;20039;-78
2022/01/22 03:52:33;;;;;;;9.07;5.32;;;4.00;99.90;;;;;;4917971;29;20035;-79
2022/01/22 03:54:58;;;;;;;8.68;5.13;;;4.00;99.90;;;;;;4918049;29;20044;-78
2022/01/22 03:57:25;;;;;;;11.90;5.55;;;4.00;99.90;;;;;;4917930;29;20023;-79
2022/01/22 03:59:53;;;;;;;10.82;4.95;;;4.10;99.90;;;;;;4918170;29;20032;-77
2022/01/22 04:05:04;;;;;;;10.60;6.68;;;4.10;99.90;;;;;;4917919;29;20452;-74
2022/01/22 04:10:17;;;;;;;26.25;5.90;;;4.20;99.90;;;;;;4918185;29;20549;-78
2022/01/22 04:13:01;;;;;;;10.20;4.63;;;4.20;99.90;;;;;;4917616;29;20031;-78
2022/01/22 04:15:30;;;;;;;17.95;6.03;;;4.20;99.90;;;;;;4917535;29;20088;-75
2022/01/22 04:26:22;;;;;;;11.32;6.38;;;4.30;99.90;;;;;;4917640;29;20409;-78
2022/01/22 04:28:48;;;;;;;10.73;6.63;;;4.30;99.90;;;;;;4917431;29;20091;-74
2022/01/22 04:31:13;;;;;;;14.55;6.47;;;4.30;99.90;;;;;;4917318;29;20095;-75
2022/01/22 04:33:39;;;;;;;11.40;6.97;;;4.30;99.90;;;;;;4900281;29;20641;-78
2022/01/22 04:36:05;;;;;;;15.13;5.63;;;4.20;99.90;;;;;;4917426;29;20554;-77
2022/01/22 04:38:31;;;;;;;14.32;6.85;;;4.20;99.90;;;;;;4917317;29;20397;-78
2022/01/22 04:40:58;;;;;;;11.32;6.53;;;4.10;99.90;;;;;;4916366;29;20040;-77
2022/01/22 04:43:24;;;;;;;10.05;6.60;;;4.10;99.90;;;;;;4917155;29;20020;-78
2022/01/22 04:46:05;;;;;;;10.93;6.80;;;4.10;99.90;;;;;;4917252;29;20396;-78
2022/01/22 04:48:52;;;;;;;11.80;6.28;;;4.10;99.90;;;;;;4900098;29;20068;-78
2022/01/22 04:56:50;;;;;;;10.82;5.85;;;4.00;99.90;;;;;;4916915;29;20055;-78
2022/01/22 04:59:16;;;;;;;12.88;6.03;;;4.00;99.90;;;;;;4916965;29;20020;-78
2022/01/22 05:01:41;;;;;;;13.15;6.70;;;4.00;99.90;;;;;;4916946;29;20115;-78
2022/01/22 05:04:07;;;;;;;9.80;6.18;;;4.00;99.90;;;;;;4916859;29;20032;-78
2022/01/22 05:06:33;;;;;;;11.32;6.00;;;4.00;99.90;;;;;;4916742;29;20024;-78
2022/01/22 05:08:59;;;;;;;9.20;5.55;;;3.90;99.90;;;;;;4916885;29;20411;-78
2022/01/22 05:11:24;;;;;;;16.15;6.28;;;4.00;99.90;;;;;;4916487;29;20050;-79
2022/01/22 05:13:51;;;;;;;9.43;6.00;;;3.90;99.90;;;;;;4916576;29;20378;-78
2022/01/22 05:16:18;;;;;;;12.73;5.63;;;3.90;99.90;;;;;;4916836;29;20028;-77
2022/01/22 05:18:54;;;;;;;12.05;6.00;;;3.80;99.90;;;;;;4916585;29;20488;-78
2022/01/22 05:21:21;;;;;;;11.68;5.50;;;3.80;99.90;;;;;;4916569;29;20621;-80
2022/01/22 05:23:48;;;;;;;15.13;7.43;;;3.80;99.90;;;;;;4916217;29;20426;-78
2022/01/22 05:37:04;;;;;;;11.70;6.47;;;3.60;99.90;;;;;;4915890;29;20024;-77
2022/01/22 05:39:31;;;;;;;14.60;6.50;;;3.60;99.90;;;;;;4916167;29;20266;-78
2022/01/22 05:42:00;;;;;;;10.23;6.18;;;3.60;99.90;;;;;;4916296;29;20040;-75
2022/01/22 05:44:26;;;;;;;11.43;6.40;;;3.60;99.90;;;;;;4916490;29;20536;-78
2022/01/22 05:46:55;;;;;;;15.50;7.15;;;3.60;99.90;;;;;;4915970;29;20027;-79
2022/01/22 05:49:22;;;;;;;10.80;6.82;;;3.60;99.90;;;;;;4915718;29;20139;-77
2022/01/22 05:51:51;;;;;;;15.20;6.47;;;3.70;99.90;;;;;;4916489;29;20061;-78
2022/01/22 05:59:40;;;;;;;12.98;7.45;;;3.70;99.90;;;;;;4920174;29;20046;-80
2022/01/22 06:02:11;;;;;;;29.10;7.40;;;3.70;99.90;;;;;;4919970;29;20039;-79
2022/01/22 06:04:37;;;;;;;14.10;7.70;;;3.70;99.90;;;;;;4903055;29;20080;-78
2022/01/22 06:07:05;;;;;;;11.93;7.10;;;3.60;99.90;;;;;;4920051;29;20035;-78
2022/01/22 06:09:32;;;;;;;25.88;8.05;;;3.60;99.90;;;;;;4919696;29;20032;-78
2022/01/22 06:14:35;;;;;;;17.60;8.60;;;3.40;99.90;;;;;;4920188;29;20040;-79
2022/01/22 06:17:02;;;;;;;20.88;8.98;;;3.40;99.90;;;;;;4919632;29;20561;-77
2022/01/22 06:19:27;;;;;;;21.55;8.85;;;3.40;99.90;;;;;;4919311;29;20027;-79
2022/01/22 06:21:53;;;;;;;31.55;9.35;;;3.40;99.90;;;;;;4919249;29;20481;-78
2022/01/22 06:24:20;;;;;;;20.55;8.90;;;3.40;99.90;;;;;;4919248;29;20449;-80
2022/01/22 06:26:46;;;;;;;17.13;8.90;;;3.40;99.90;;;;;;4919453;29;20032;-79
2022/01/22 06:29:12;;;;;;;18.92;9.50;;;3.40;99.90;;;;;;4919652;29;20078;-80
2022/01/22 06:31:38;;;;;;;25.80;9.57;;;3.40;99.90;;;;;;4919549;29;20028;-80
2022/01/22 06:34:05;;;;;;;26.40;9.68;;;3.40;99.90;;;;;;4919282;29;20174;-80
2022/01/22 06:36:31;;;;;;;23.05;9.30;;;3.40;99.90;;;;;;4919736;29;20036;-80
2022/01/22 06:39:10;;;;;;;23.88;10.27;;;3.40;99.90;;;;;;4919496;29;20152;-79
2022/01/22 06:41:46;;;;;;;32.35;10.70;;;3.50;99.90;;;;;;4919053;29;20131;-80
2022/01/22 06:44:13;;;;;;;19.90;9.60;;;3.50;99.90;;;;;;4919215;29;20024;-80
2022/01/22 06:46:39;;;;;;;23.20;11.65;;;3.50;99.90;;;;;;4919167;29;20103;-80
2022/01/22 06:49:05;;;;;;;27.20;10.70;;;3.60;99.90;;;;;;4919369;29;20028;-80
2022/01/22 06:51:32;;;;;;;18.05;9.35;;;3.60;99.90;;;;;;4901825;29;20114;-80
2022/01/22 06:53:58;;;;;;;22.23;9.00;;;3.60;99.90;;;;;;4919241;29;20473;-80
2022/01/22 06:56:25;;;;;;;22.10;9.32;;;3.60;99.90;;;;;;4918891;29;20029;-79
2022/01/22 06:58:51;;;;;;;16.85;8.85;;;3.50;99.90;;;;;;4919167;29;20367;-80
2022/01/22 07:01:16;;;;;;;18.65;10.13;;;3.40;99.90;;;;;;4918967;29;20027;-79
2022/01/22 07:03:42;;;;;;;25.10;11.05;;;3.40;99.90;;;;;;4918285;29;20369;-80
2022/01/22 07:06:08;;;;;;;32.63;10.10;;;3.40;99.90;;;;;;4918726;29;20104;-79
2022/01/22 07:08:34;;;;;;;21.55;11.07;;;3.40;99.90;;;;;;4919044;29;20418;-79
2022/01/22 07:11:00;;;;;;;30.95;10.90;;;3.30;99.90;;;;;;4918872;29;20477;-79
2022/01/22 07:13:25;;;;;;;21.38;11.10;;;3.40;99.90;;;;;;4918634;29;20043;-78
2022/01/22 07:15:51;;;;;;;22.05;9.82;;;3.30;99.90;;;;;;4918627;29;20060;-79
2022/01/22 07:18:17;;;;;;;27.33;11.18;;;3.30;99.90;;;;;;4917930;29;20095;-80
2022/01/22 07:20:44;;;;;;;30.90;10.85;;;3.40;99.90;;;;;;4917972;29;20046;-80
2022/01/22 07:23:43;;;;;;;23.63;10.60;;;3.50;99.90;;;;;;4917959;29;20496;-80
2022/01/22 07:26:08;;;;;;;22.67;10.55;;;3.70;99.90;;;;;;4918137;29;20035;-80
2022/01/22 07:28:34;;;;;;;20.10;10.00;;;4.10;99.90;;;;;;4917838;29;20028;-80
2022/01/22 07:31:00;;;;;;;22.23;11.60;;;4.40;99.90;;;;;;4918132;29;20032;-78
2022/01/22 07:33:27;;;;;;;25.80;11.38;;;4.80;99.90;;;;;;4900807;29;20574;-81
2022/01/22 07:35:53;;;;;;;27.60;12.38;;;5.20;99.90;;;;;;4918351;29;20032;-81
2022/01/22 07:38:19;;;;;;;23.35;11.65;;;5.50;99.90;;;;;;4901020;29;20035;-81
2022/01/22 07:40:45;;;;;;;20.98;11.18;;;6.10;99.90;;;;;;4918135;29;20082;-82
2022/01/22 07:43:11;;;;;;;27.02;11.75;;;6.70;99.90;;;;;;4918450;29;20493;-81
2022/01/22 07:45:37;;;;;;;19.80;10.88;;;7.30;99.90;;;;;;4918297;29;20021;-82
2022/01/22 07:48:03;;;;;;;22.13;12.07;;;7.70;99.90;;;;;;4917961;29;20031;-83
2022/01/22 07:50:29;;;;;;;25.52;11.80;;;8.10;99.90;;;;;;4917337;29;20465;-82
2022/01/22 07:52:57;;;;;;;26.48;11.52;;;8.10;99.90;;;;;;4917628;29;20031;-81
2022/01/22 07:55:23;;;;;;;29.98;12.25;;;8.60;99.90;;;;;;4917541;29;20500;-80
2022/01/22 07:57:48;;;;;;;29.92;11.57;;;9.00;99.90;;;;;;4917120;29;20092;-79
2022/01/22 08:00:16;;;;;;;27.50;11.52;;;9.40;99.90;;;;;;4917791;29;20024;-82
2022/01/22 08:02:42;;;;;;;25.95;11.27;;;9.80;99.90;;;;;;4917885;29;20027;-81
2022/01/22 08:05:08;;;;;;;26.38;12.60;;;10.00;99.90;;;;;;4899789;29;20064;-83
2022/01/22 08:07:34;;;;;;;31.45;17.98;;;10.40;99.90;;;;;;4917778;29;20024;-80
2022/01/22 08:10:02;;;;;;;22.85;12.77;;;10.70;99.90;;;;;;4917567;29;20032;-81
2022/01/22 08:12:28;;;;;;;25.27;14.23;;;11.00;99.90;;;;;;4900427;29;20426;-83
2022/01/22 08:14:55;;;;;;;24.25;13.35;;;11.50;99.90;;;;;;4916697;29;20028;-83
2022/01/22 08:17:20;;;;;;;22.15;12.13;;;11.80;99.90;;;;;;4917700;29;20032;-82
2022/01/22 08:19:46;;;;;;;32.63;12.63;;;12.10;99.90;;;;;;4917339;29;20508;-83
2022/01/22 08:22:12;;;;;;;48.60;36.05;;;12.30;99.90;;;;;;4916538;29;20030;-81
2022/01/22 08:24:38;;;;;;;21.17;12.10;;;12.70;99.90;;;;;;4917039;29;20099;-78
2022/01/22 08:27:21;;;;;;;55.45;35.55;;;12.80;99.90;;;;;;4916429;29;20031;-81
2022/01/22 08:29:46;;;;;;;41.63;26.40;;;13.20;99.90;;;;;;4914406;29;20076;-75
2022/01/22 08:37:58;;;;;;;28.27;12.63;;;14.20;99.90;;;;;;4905079;29;20103;-82
2022/01/22 08:40:23;;;;;;;24.08;11.50;;;14.30;99.90;;;;;;4914078;29;20044;-82
2022/01/22 08:42:50;;;;;;;25.85;13.32;;;14.60;99.90;;;;;;4915965;29;20402;-85
2022/01/22 08:45:15;;;;;;;60.70;46.20;;;15.10;99.90;;;;;;4914559;29;20032;-80
2022/01/22 08:47:41;;;;;;;36.20;17.48;;;15.50;99.90;;;;;;4913877;29;20111;-80
2022/01/22 08:50:07;;;;;;;35.47;13.65;;;15.90;99.90;;;;;;4914455;29;20016;-81
2022/01/22 08:52:35;;;;;;;25.67;14.13;;;15.90;99.90;;;;;;4915681;29;20111;-81
2022/01/22 08:55:03;;;;;;;40.95;18.88;;;15.60;99.90;;;;;;4895805;29;20044;-79
2022/01/22 08:57:28;;;;;;;27.98;12.95;;;15.90;99.90;;;;;;4916096;29;20020;-77
2022/01/22 08:59:54;;;;;;;26.58;13.55;;;16.70;99.90;;;;;;4915266;29;20036;-80
2022/01/22 09:02:20;;;;;;;26.52;14.52;;;17.50;99.90;;;;;;4913192;29;20027;-76
2022/01/22 09:04:46;;;;;;;22.08;12.73;;;17.60;99.90;;;;;;4914910;29;20493;-82
2022/01/22 09:07:12;;;;;;;33.45;19.60;;;17.10;99.90;;;;;;4915513;29;20467;-80
2022/01/22 09:09:39;;;;;;;38.65;15.50;;;17.20;99.90;;;;;;4915663;29;20028;-79
2022/01/22 09:12:07;;;;;;;39.10;15.85;;;16.70;99.90;;;;;;4915408;29;20039;-76
2022/01/22 09:14:32;;;;;;;28.20;14.02;;;16.90;99.90;;;;;;4912918;29;20047;-78
2022/01/22 09:16:59;;;;;;;22.23;13.05;;;17.20;99.90;;;;;;4915193;29;20020;-79
2022/01/22 09:19:33;;;;;;;31.73;13.90;;;18.00;99.00;;;;;;4897942;29;20016;-76
2022/01/22 09:21:59;;;;;;;35.38;14.10;;;18.50;98.20;;;;;;4915386;29;20072;-79
2022/01/22 09:24:25;;;;;;;25.13;14.60;;;18.50;97.30;;;;;;4915674;29;20103;-80
2022/01/22 09:26:51;;;;;;;31.42;15.80;;;17.30;98.30;;;;;;4897967;29;20469;-75
2022/01/22 09:29:17;;;;;;;29.65;14.95;;;16.00;99.80;;;;;;4915293;29;20115;-80
2022/01/22 09:31:44;;;;;;;28.38;15.15;;;15.40;99.90;;;;;;4915298;29;20027;-76
2022/01/22 09:34:10;;;;;;;26.15;13.95;;;14.80;99.90;;;;;;4915113;29;20063;-80
2022/01/22 09:36:36;;;;;;;28.02;15.45;;;14.60;99.90;;;;;;4915463;29;20066;-79
2022/01/22 09:39:04;;;;;;;37.00;15.80;;;14.50;99.90;;;;;;4915600;29;20111;-78
2022/01/22 09:41:30;;;;;;;31.85;16.25;;;14.30;99.90;;;;;;4915014;29;20482;-75
2022/01/22 09:43:56;;;;;;;31.15;14.98;;;13.80;99.90;;;;;;4915039;29;20024;-76
2022/01/22 09:46:24;;;;;;;35.95;15.07;;;13.30;99.90;;;;;;4898222;29;20590;-76
2022/01/22 09:48:51;;;;;;;31.85;15.98;;;13.60;99.90;;;;;;4915657;29;20148;-81
2022/01/22 09:51:17;;;;;;;26.48;14.75;;;14.00;99.90;;;;;;4916037;29;20106;-82
2022/01/22 09:53:44;;;;;;;31.38;14.10;;;14.00;99.90;;;;;;4915928;29;20028;-82
2022/01/22 09:56:11;;;;;;;33.25;14.73;;;13.90;99.90;;;;;;4915453;29;20036;-75
2022/01/22 09:58:37;;;;;;;38.42;17.05;;;14.00;99.90;;;;;;4916121;29;20027;-79
2022/01/22 10:01:20;;;;;;;34.65;16.45;;;14.30;99.90;;;;;;4912977;29;20451;-77
2022/01/22 10:03:45;;;;;;;39.05;22.83;;;14.00;99.90;;;;;;4915828;29;20176;-79
2022/01/22 10:06:16;;;;;;;32.80;15.65;;;14.00;99.90;;;;;;4914895;29;20064;-79
2022/01/22 10:08:42;;;;;;;36.05;16.63;;;13.90;99.90;;;;;;4915250;29;20559;-81
2022/01/22 10:11:33;;;;;;;36.40;17.60;;;14.00;99.90;;;;;;4914455;29;20107;-74
2022/01/22 10:14:00;;;;;;;35.80;17.25;;;13.60;99.90;;;;;;4914779;29;20032;-79
2022/01/22 10:16:29;;;;;;;39.80;16.58;;;13.80;99.90;;;;;;4914813;29;20040;-77
2022/01/22 10:19:17;;;;;;;33.92;17.25;;;14.00;99.90;;;;;;4914519;29;20099;-77
2022/01/22 10:21:46;;;;;;;28.60;16.38;;;14.20;99.90;;;;;;4914858;29;20028;-76
2022/01/22 10:24:21;;;;;;;31.52;15.98;;;14.30;99.90;;;;;;4915163;29;20027;-79
2022/01/22 10:26:47;;;;;;;36.70;15.80;;;14.50;99.90;;;;;;4915031;29;20032;-75
2022/01/22 10:29:19;;;;;;;27.05;16.65;;;15.00;98.90;;;;;;4915355;29;20088;-77
2022/01/22 10:31:46;;;;;;;30.40;16.85;;;15.30;98.80;;;;;;4912863;29;20032;-80
2022/01/22 10:34:13;;;;;;;33.28;17.27;;;15.60;98.00;;;;;;4915075;29;20032;-79
2022/01/22 10:36:39;;;;;;;30.77;17.00;;;15.70;97.70;;;;;;4914829;29;20024;-79
2022/01/22 10:39:30;;;;;;;29.75;16.27;;;16.10;97.40;;;;;;4900656;29;20024;-79
2022/01/22 10:41:56;;;;;;;30.38;16.58;;;16.40;96.80;;;;;;4918437;29;20048;-78
2022/01/22 10:44:40;;;;;;;32.97;16.73;;;16.20;96.90;;;;;;4918771;29;20112;-80
2022/01/22 10:47:20;;;;;;;33.80;16.00;;;16.30;96.70;;;;;;4918779;29;20024;-79
2022/01/22 10:49:46;;;;;;;34.63;17.65;;;16.40;96.10;;;;;;4918886;29;20028;-80
2022/01/22 10:52:11;;;;;;;31.75;17.17;;;16.40;96.60;;;;;;4918547;29;20103;-75
2022/01/22 10:54:39;;;;;;;38.13;17.63;;;15.40;97.20;;;;;;4918371;29;20385;-78
2022/01/22 10:57:20;;;;;;;34.50;16.33;;;15.10;98.00;;;;;;4918189;29;20035;-75
2022/01/22 10:59:52;;;;;;;34.90;17.40;;;15.40;97.30;;;;;;4918243;29;20052;-81
2022/01/22 11:02:32;;;;;;;31.05;17.60;;;14.40;97.90;;;;;;4898896;29;20123;-80
2022/01/22 11:04:57;;;;;;;32.58;16.67;;;13.70;99.20;;;;;;4915272;29;20036;-76
2022/01/22 11:07:23;;;;;;;32.83;16.77;;;13.50;99.40;;;;;;4917758;29;20032;-76
2022/01/22 11:09:50;;;;;;;31.05;16.23;;;13.50;99.40;;;;;;4900683;29;20545;-83
2022/01/22 11:12:16;;;;;;;31.02;17.08;;;13.80;99.10;;;;;;4917498;29;20092;-77
2022/01/22 11:14:43;;;;;;;42.72;17.90;;;13.90;98.90;;;;;;4917602;29;20032;-79
2022/01/22 11:17:10;;;;;;;29.42;16.38;;;14.10;98.60;;;;;;4917596;29;20081;-79
2022/01/22 11:19:38;;;;;;;30.55;15.85;;;13.90;98.50;;;;;;4917420;29;20032;-83
2022/01/22 11:22:15;;;;;;;26.83;15.68;;;14.10;98.10;;;;;;4917184;29;20071;-81
2022/01/22 11:24:50;;;;;;;38.78;17.20;;;14.50;97.80;;;;;;4917270;29;20414;-81
2022/01/22 11:27:19;;;;;;;28.15;16.42;;;14.90;97.50;;;;;;4917780;29;20016;-83
2022/01/22 11:30:05;;;;;;;31.20;16.52;;;15.30;96.80;;;;;;4918069;29;20390;-83
2022/01/22 11:32:42;;;;;;;23.70;14.13;;;15.50;96.30;;;;;;4917205;29;20036;-83
2022/01/22 11:35:09;;;;;;;30.75;15.55;;;15.70;95.90;;;;;;4914918;29;20038;-80
2022/01/22 11:37:43;;;;;;;32.47;14.82;;;15.80;95.80;;;;;;4900598;29;20092;-79
2022/01/22 11:40:24;;;;;;;30.85;15.10;;;15.40;95.80;;;;;;4900324;29;20040;-83
2022/01/22 11:43:00;;;;;;;36.88;16.48;;;15.30;95.90;;;;;;4917531;29;20024;-76
2022/01/22 11:45:29;;;;;;;26.85;14.88;;;14.50;96.50;;;;;;4916730;29;20549;-82
2022/01/22 11:48:14;;;;;;;29.95;15.70;;;13.90;97.60;;;;;;4917103;29;20024;-81
2022/01/22 11:50:41;;;;;;;26.45;15.23;;;14.00;97.50;;;;;;4915696;29;20044;-79
2022/01/22 11:53:22;;;;;;;26.40;15.07;;;14.10;96.80;;;;;;4917175;29;20032;-79
2022/01/22 11:56:10;;;;;;;31.48;15.93;;;14.20;96.90;;;;;;4916777;29;20058;-75
2022/01/22 11:59:03;;;;;;;63.72;17.70;;;14.00;97.30;;;;;;4910646;29;20021;-81
2022/01/22 12:01:50;;;;;;;29.52;14.65;;;14.00;97.40;;;;;;4895361;29;20556;-79
2022/01/22 12:04:18;;;;;;;33.67;17.67;;;13.80;97.30;;;;;;4916837;29;20017;-80
2022/01/22 12:07:05;;;;;;;30.08;16.83;;;13.80;97.60;;;;;;4917283;29;20032;-76
2022/01/22 12:10:17;;;;;;;30.83;15.20;;;13.70;98.10;;;;;;4899977;29;20126;-80
2022/01/22 12:15:20;;;;;;;22.10;12.43;;;13.50;97.70;;;;;;4917168;29;20044;-81
2022/01/22 12:17:57;;;;;;;21.98;12.20;;;13.40;97.50;;;;;;4917408;29;20103;-83
2022/01/22 12:23:18;;;;;;;32.63;16.85;;;13.00;97.90;;;;;;4887233;29;20032;-80
2022/01/22 12:25:44;;;;;;;27.65;15.75;;;12.90;99.00;;;;;;4900060;29;20024;-78
2022/01/22 12:28:12;;;;;;;34.35;17.58;;;12.80;99.60;;;;;;4916129;29;20434;-80
2022/01/22 12:30:51;;;;;;;31.02;17.98;;;12.70;99.90;;;;;;4916412;29;20071;-79
2022/01/22 12:33:29;;;;;;;34.15;18.27;;;12.50;99.90;;;;;;4916442;29;20034;-81
2022/01/22 12:36:17;;;;;;;37.80;19.17;;;12.40;99.90;;;;;;4916536;29;20036;-78
2022/01/22 12:38:48;;;;;;;51.25;26.30;;;12.30;99.90;;;;;;4915933;29;20436;-81
2022/01/22 12:43:51;;;;;;;66.30;33.15;;;12.10;99.90;;;;;;4916185;29;20064;-81
2022/01/22 12:46:17;;;;;;;69.38;37.38;;;12.00;99.90;;;;;;4916836;29;20032;-85
2022/01/22 12:48:48;;;;;;;69.57;39.58;;;11.80;99.90;;;;;;4917462;29;20039;-85
2022/01/22 12:51:14;;;;;;;71.23;39.97;;;11.50;99.90;;;;;;4904274;29;20029;-84
2022/01/22 12:53:48;;;;;;;76.50;40.25;;;11.30;99.90;;;;;;4910128;29;20269;-84
2022/01/22 12:59:08;;;;;;;86.15;43.95;;;11.00;99.90;;;;;;4917383;29;20153;-85
2022/01/22 13:01:43;;;;;;;83.18;44.42;;;10.80;99.90;;;;;;4899916;29;20020;-83
2022/01/22 13:04:09;;;;;;;80.63;43.85;;;10.70;99.90;;;;;;4912894;29;20028;-84
2022/01/22 13:06:51;;;;;;;92.90;48.17;;;10.70;99.90;;;;;;4912605;29;20393;-83
2022/01/22 13:09:17;;;;;;;81.82;44.30;;;10.60;99.90;;;;;;4916220;29;20024;-84
2022/01/22 13:11:52;;;;;;;81.25;45.95;;;10.60;99.90;;;;;;4915710;29;20503;-81
2022/01/22 13:14:29;;;;;;;101.75;48.45;;;10.60;99.90;;;;;;4910380;29;20524;-87
2022/01/22 13:16:57;;;;;;;98.75;49.67;;;10.50;99.90;;;;;;4908265;29;20028;-84
2022/01/22 13:19:29;;;;;;;93.90;48.45;;;10.50;99.90;;;;;;4913384;29;20028;-82
2022/01/22 13:22:01;;;;;;;94.35;46.58;;;10.40;99.90;;;;;;4884291;29;20024;-81
2022/01/22 13:24:27;;;;;;;;;;;10.30;99.90;;;;;;4908256;29;20036;-81
2022/01/22 13:27:03;;;;;;;95.53;48.45;;;10.20;99.90;;;;;;4908389;29;19911;-87
2022/01/22 13:29:33;;;;;;;90.47;46.75;;;10.20;99.90;;;;;;4901502;29;20052;-82
2022/01/22 13:32:23;;;;;;;94.65;44.95;;;10.10;99.90;;;;;;4905628;29;20020;-86
2022/01/22 13:35:13;;;;;;;91.57;45.72;;;10.00;99.90;;;;;;4901007;29;20042;-88
2022/01/22 13:49:40;;;;;;;107.25;49.03;;;9.90;99.90;;;;;;4911957;29;20446;-75
2022/01/22 13:52:11;;;;;;;99.63;50.15;;;9.80;99.90;;;;;;4908209;29;20035;-83
2022/01/22 13:54:39;;;;;;;97.00;45.67;;;9.80;99.90;;;;;;4907285;29;20131;-74
2022/01/22 13:57:17;;;;;;;95.78;45.67;;;9.80;99.90;;;;;;4910847;29;20091;-76
2022/01/22 13:59:45;;;;;;;100.70;44.15;;;9.70;99.90;;;;;;4912670;29;20043;-86
2022/01/22 14:04:52;;;;;;;98.55;46.65;;;9.70;99.90;;;;;;4913469;29;20438;-89
2022/01/22 14:07:30;;;;;;;100.20;46.03;;;9.70;99.90;;;;;;4908002;29;20035;-83
2022/01/22 14:09:56;;;;;;;98.22;44.33;;;9.70;99.90;;;;;;4902690;29;20084;-86
2022/01/22 14:12:30;;;;;;;102.68;45.20;;;9.70;99.90;;;;;;4908789;29;20053;-82
2022/01/22 14:15:13;;;;;;;106.55;47.50;;;9.70;99.90;;;;;;4916663;29;20105;-79
2022/01/22 14:18:15;;;;;;;117.88;51.83;;;9.60;99.90;;;;;;4909270;29;20493;-83
2022/01/22 14:20:40;;;;;;;111.43;50.72;;;9.60;99.90;;;;;;4912077;29;20043;-81
2022/01/22 14:23:11;;;;;;;118.50;53.60;;;9.50;99.90;;;;;;4902422;29;20047;-82
2022/01/22 14:25:58;;;;;;;108.90;49.33;;;9.50;99.90;;;;;;4909921;29;20089;-84
2022/01/22 14:28:48;;;;;;;130.95;54.83;;;9.50;99.90;;;;;;4908661;29;20381;-88
2022/01/22 14:31:26;;;;;;;104.53;47.08;;;9.40;99.90;;;;;;4908441;29;20080;-75
2022/01/22 14:33:54;;;;;;;102.43;47.00;;;9.40;99.90;;;;;;4909532;29;20020;-80
2022/01/22 14:36:41;;;;;;;103.32;48.47;;;9.30;99.90;;;;;;4918410;29;20426;-84
2022/01/22 14:44:56;;;;;;;111.22;51.08;;;9.10;99.90;;;;;;4903247;29;20133;-83
2022/01/22 14:47:27;;;;;;;124.65;52.47;;;8.90;99.90;;;;;;4923072;29;20074;-87
2022/01/22 14:50:01;;;;;;;104.40;48.13;;;8.90;99.90;;;;;;4907935;29;20683;-85
2022/01/22 14:52:27;;;;;;;103.53;47.00;;;8.80;99.90;;;;;;4916350;29;20028;-84
2022/01/22 14:54:57;;;;;;;113.60;49.47;;;8.80;99.90;;;;;;4913615;29;20036;-83
2022/01/22 14:57:25;;;;;;;113.53;49.63;;;8.80;99.90;;;;;;4915536;29;20016;-82